Valdosta Regional Airport
KVLD : now visible

Airfield :











YOU CAN JOIN US ON...

 
LOGIN :

Register | Disclaimer

   EN    FR    IT 

 









Legend :    VFR   Marginal VFR   IFR   Intensive IFR   Very Intensive IFR
Visi :
Ceiling :
>= 8 km
>= 3000ft
5 to 8 km
1000 to 3000 ft
1500m to 5 km
500 to 1000 ft
800 to 1500m
200 to 500 ft
< 800m
< 200 ft
Symbols :   Thunderstorms  Fog  Heavy snow  Heavy precipitations  Wind > 20 kt






- Airport Elevation : 203 ft
- IATA code : VLD


KVLD - Valdosta Regional

CURRENT METAR :
  • 271953Z 13007KT 10SM FEW030 SCT037 BKN050 29/22 A3005 RMK AO2 SLP180 T02940217

EXPIRED METARs :
  • 271922Z 15006KT 10SM BKN031 OVC045 29/22 A3006 RMK AO2 T02940217
  • 271900Z 13006KT 10SM BKN028 BKN035 OVC042 29/22 A3006 RMK AO2 T02890217
  • 271816Z 12006KT 10SM FEW025 BKN039 OVC085 29/22 A3008 RMK AO2 T02940222
  • 271753Z 13003KT 10SM BKN026 OVC035 28/22 A3009 RMK AO2 SLP197 T02830217 10283 20217 58014

TAF KVLD
Valid from the 27 at 18:00 until the 28 at 18:00 UTC


271720Z 2718/2818 11006KT P6SM BKN022
FM272000 10010KT P6SM VCSH BKN015
FM280200 11005KT P6SM BKN015
FM280700 12006KT P6SM OVC007
FM281700 14010KT P6SM OVC015
KZJX FIR / North America



MET'MAP, your aeronautical weather chart ! - Copyright ORBIFLY December 2007 - Disclaimer

ORBIFLY MET'MAP TEAM :

Programming & Development : Alexandra Zaïnal
Concept & original design : Baudouin d'Aumeries
Assistance for programming : Marc-Olivier Méhu
Technical & hardware support : Manuel Goepfert

Contact : metmap@orbifly.com




SOURCES & CREDITS :

   NOAA       Earth
Advisory